createdAt,value
2023-02-11T00:01:28.338Z,56.55
2023-02-11T00:03:58.203Z,54.97
2023-02-11T00:06:28.258Z,56.85
2023-02-11T00:08:58.317Z,55.88
2023-02-11T00:11:30.255Z,54.43
2023-02-11T00:14:00.166Z,56.80
2023-02-11T00:16:29.327Z,53.97
2023-02-11T00:18:57.689Z,55.17
2023-02-11T00:21:27.464Z,56.38
2023-02-11T00:23:59.636Z,57.88
2023-02-11T00:26:30.921Z,55.70
2023-02-11T00:28:59.220Z,60.17
2023-02-11T00:31:28.285Z,58.30
2023-02-11T00:33:56.595Z,59.33
2023-02-11T00:36:28.535Z,59.27
2023-02-11T00:38:59.762Z,59.70
2023-02-11T00:41:28.220Z,60.08
2023-02-11T00:43:56.435Z,62.60
2023-02-11T00:46:25.173Z,61.50
2023-02-11T00:48:57.496Z,60.63
2023-02-11T00:51:26.284Z,62.17
2023-02-11T00:53:54.634Z,59.08
2023-02-11T00:56:24.070Z,61.25
2023-02-11T00:58:52.182Z,64.30
2023-02-11T01:01:20.515Z,63.00
2023-02-11T01:03:48.935Z,65.80
2023-02-11T01:06:17.757Z,65.63
2023-02-11T01:08:45.932Z,64.55
2023-02-11T01:11:18.605Z,72.68
2023-02-11T01:13:50.041Z,60.05
2023-02-11T01:16:20.829Z,61.42
2023-02-11T01:18:49.201Z,65.70
2023-02-11T01:21:17.262Z,65.20
2023-02-11T01:23:45.412Z,61.40
2023-02-11T01:26:13.710Z,62.95
2023-02-11T01:28:41.794Z,65.05
2023-02-11T01:31:11.860Z,62.75
2023-02-11T01:33:40.073Z,65.60
2023-02-11T01:36:09.121Z,65.00
2023-02-11T01:38:37.918Z,68.20
2023-02-11T01:41:10.283Z,67.40
2023-02-11T01:43:42.064Z,71.33
2023-02-11T01:46:30.946Z,66.23
2023-02-11T01:49:05.418Z,67.05
2023-02-11T01:51:40.046Z,69.07
2023-02-11T01:54:35.610Z,73.20
2023-02-11T01:57:20.527Z,73.43
2023-02-11T02:00:03.840Z,71.07
2023-02-11T02:02:42.907Z,75.10
2023-02-11T02:05:25.326Z,78.67
2023-02-11T02:08:05.956Z,75.32
2023-02-11T02:10:37.696Z,78.78
2023-02-11T02:13:05.757Z,83.10
2023-02-11T02:15:37.399Z,83.53
2023-02-11T02:18:29.055Z,86.83
2023-02-11T02:21:59.052Z,80.30
2023-02-11T02:25:00.953Z,83.90
2023-02-11T02:27:47.028Z,84.63
2023-02-11T02:31:20.950Z,84.43
2023-02-11T02:34:01.624Z,82.53
2023-02-11T02:36:42.683Z,87.00
2023-02-11T02:39:19.222Z,82.95
2023-02-11T02:41:49.941Z,85.25
2023-02-11T02:44:19.870Z,83.65
2023-02-11T02:46:48.107Z,84.97
2023-02-11T02:49:18.576Z,84.80
2023-02-11T02:52:31.387Z,78.60
2023-02-11T02:55:26.114Z,82.40
2023-02-11T02:58:27.863Z,83.40
2023-02-11T03:01:07.875Z,82.85
2023-02-11T03:03:49.362Z,80.65
2023-02-11T03:06:31.169Z,78.75
2023-02-11T03:09:11.129Z,81.63
2023-02-11T03:11:40.890Z,79.68
2023-02-11T03:14:14.195Z,80.25
2023-02-11T03:16:45.580Z,80.35
2023-02-11T03:19:19.427Z,83.85
2023-02-11T03:21:52.051Z,80.60
2023-02-11T03:24:29.141Z,79.15
2023-02-11T03:27:05.134Z,79.35
2023-02-11T03:29:40.115Z,77.60
2023-02-11T03:32:17.050Z,78.27
2023-02-11T03:34:55.790Z,77.63
2023-02-11T03:37:32.748Z,77.38
2023-02-11T03:40:09.239Z,76.53
2023-02-11T03:42:46.792Z,74.93
2023-02-11T03:45:21.438Z,78.30
2023-02-11T03:47:57.213Z,79.60
2023-02-11T03:50:27.890Z,78.65
2023-02-11T03:53:00.072Z,81.22
2023-02-11T03:55:31.559Z,78.53
2023-02-11T03:57:59.720Z,79.45
2023-02-11T04:00:32.447Z,78.43
2023-02-11T04:03:00.624Z,78.13
2023-02-11T04:05:31.998Z,79.07
2023-02-11T04:08:01.898Z,78.85
2023-02-11T04:10:30.638Z,78.15
2023-02-11T04:12:59.165Z,80.20
2023-02-11T04:15:27.616Z,79.15
2023-02-11T04:17:55.798Z,78.82
2023-02-11T04:20:23.940Z,75.88
2023-02-11T04:22:52.002Z,74.90
2023-02-11T04:25:21.648Z,76.45
2023-02-11T04:27:49.731Z,76.07
2023-02-11T04:30:17.869Z,75.78
2023-02-11T04:32:46.141Z,75.40
2023-02-11T04:35:14.287Z,75.40
2023-02-11T04:37:42.386Z,79.38
2023-02-11T04:40:11.898Z,79.90
2023-02-11T04:42:42.279Z,79.70
2023-02-11T04:45:10.887Z,80.45
2023-02-11T04:47:38.951Z,81.38
2023-02-11T04:50:07.762Z,79.63
2023-02-11T04:52:35.918Z,81.45
2023-02-11T04:55:05.560Z,79.05
2023-02-11T04:57:33.627Z,84.00
2023-02-11T05:00:03.103Z,83.40
2023-02-11T05:02:31.173Z,78.82
2023-02-11T05:04:59.192Z,77.18
2023-02-11T05:07:27.353Z,71.57
2023-02-11T05:09:55.413Z,78.60
2023-02-11T05:12:23.504Z,75.40
2023-02-11T05:14:51.548Z,73.97
2023-02-11T05:17:21.023Z,72.23
2023-02-11T05:19:49.061Z,70.38
2023-02-11T05:22:17.132Z,72.05
2023-02-11T05:24:47.074Z,71.15
2023-02-11T05:27:15.163Z,75.13
2023-02-11T05:29:43.284Z,65.30
2023-02-11T05:32:12.126Z,65.43
2023-02-11T05:34:41.538Z,61.15
2023-02-11T05:37:09.922Z,61.45
2023-02-11T05:39:38.006Z,63.65
2023-02-11T05:42:06.625Z,60.42
2023-02-11T05:44:34.727Z,61.13
2023-02-11T05:47:02.882Z,61.53
2023-02-11T05:49:31.110Z,58.60
2023-02-11T05:52:00.554Z,59.85
2023-02-11T05:54:29.008Z,61.47
2023-02-11T05:56:57.068Z,58.15
2023-02-11T05:59:25.140Z,60.72
2023-02-11T06:01:53.464Z,57.75
2023-02-11T06:04:21.628Z,63.07
2023-02-11T06:06:49.709Z,60.55
2023-02-11T06:09:19.088Z,62.30
2023-02-11T06:11:47.174Z,60.92
2023-02-11T06:14:15.308Z,62.60
2023-02-11T06:16:43.432Z,59.65
2023-02-11T06:19:11.812Z,60.30
2023-02-11T06:21:44.064Z,58.55
2023-02-11T06:24:14.194Z,60.73
2023-02-11T06:26:43.754Z,58.10
2023-02-11T06:29:12.885Z,61.97
2023-02-11T06:31:41.263Z,58.90
2023-02-11T06:34:10.411Z,57.30
2023-02-11T06:36:41.467Z,58.42
2023-02-11T06:39:09.602Z,54.47
2023-02-11T06:41:37.722Z,60.65
2023-02-11T06:44:07.771Z,58.47
2023-02-11T06:46:36.127Z,58.10
2023-02-11T06:49:04.364Z,57.83
2023-02-11T06:51:32.515Z,56.43
2023-02-11T06:54:00.571Z,57.75
2023-02-11T06:56:28.756Z,56.45
2023-02-11T06:58:58.135Z,55.50
2023-02-11T07:01:29.246Z,54.10
2023-02-11T07:03:57.877Z,55.42
2023-02-11T07:06:28.349Z,56.50
2023-02-11T07:08:57.523Z,55.53
2023-02-11T07:11:29.460Z,51.92
2023-02-11T07:14:02.283Z,54.97
2023-02-11T07:16:33.312Z,55.20
2023-02-11T07:19:01.629Z,54.50
2023-02-11T07:21:29.811Z,54.72
2023-02-11T07:23:58.010Z,57.35
2023-02-11T07:26:26.974Z,54.05
2023-02-11T07:28:55.050Z,55.67
2023-02-11T07:31:26.901Z,54.30
2023-02-11T07:34:00.216Z,55.75
2023-02-11T07:36:30.484Z,56.53
2023-02-11T07:38:58.595Z,54.83
2023-02-11T07:41:27.604Z,58.45
2023-02-11T07:43:56.098Z,56.85
2023-02-11T07:46:26.663Z,54.38
2023-02-11T07:48:56.725Z,54.70
2023-02-11T07:51:28.342Z,53.50
2023-02-11T07:53:58.369Z,55.95
2023-02-11T07:56:28.048Z,51.33
2023-02-11T07:58:57.765Z,53.28
2023-02-11T08:01:28.550Z,54.97
2023-02-11T08:04:00.810Z,55.90
2023-02-11T08:06:32.428Z,50.70
2023-02-11T08:09:06.532Z,54.65
2023-02-11T08:11:34.713Z,51.35
2023-02-11T08:14:03.476Z,54.87
2023-02-11T08:16:35.121Z,54.23
2023-02-11T08:19:08.333Z,52.40
2023-02-11T08:21:36.403Z,53.65
2023-02-11T08:24:05.280Z,54.03
2023-02-11T08:26:35.468Z,55.55
2023-02-11T08:29:09.486Z,52.03
2023-02-11T08:31:41.814Z,51.47
2023-02-11T08:34:14.193Z,48.78
2023-02-11T08:36:44.745Z,52.53
2023-02-11T08:39:20.235Z,52.75
2023-02-11T08:41:50.361Z,54.50
2023-02-11T08:44:19.546Z,51.30
2023-02-11T08:46:48.561Z,51.97
2023-02-11T08:49:18.334Z,51.25
2023-02-11T08:51:47.349Z,49.08
2023-02-11T08:54:16.475Z,55.15
2023-02-11T08:56:44.876Z,50.00
2023-02-11T08:59:14.863Z,54.83
2023-02-11T09:01:44.104Z,52.80
2023-02-11T09:04:12.479Z,52.85
2023-02-11T09:06:42.224Z,58.73
2023-02-11T09:09:13.921Z,57.77
2023-02-11T09:11:44.631Z,46.97
2023-02-11T09:14:19.729Z,49.13
2023-02-11T09:16:48.202Z,48.15
2023-02-11T09:19:16.620Z,48.78
2023-02-11T09:21:46.748Z,52.08
2023-02-11T09:24:15.216Z,48.77
2023-02-11T09:26:44.288Z,52.78
2023-02-11T09:29:12.506Z,52.87
2023-02-11T09:31:40.711Z,52.30
2023-02-11T09:34:09.475Z,52.80
2023-02-11T09:36:40.753Z,51.83
2023-02-11T09:39:15.420Z,52.75
2023-02-11T09:42:30.377Z,50.53
2023-02-11T09:45:00.515Z,55.65
2023-02-11T09:47:33.053Z,51.80
2023-02-11T09:50:07.702Z,54.92
2023-02-11T09:52:45.945Z,55.17
2023-02-11T09:55:24.486Z,55.55
2023-02-11T09:57:52.749Z,54.40
2023-02-11T10:00:25.739Z,54.20
2023-02-11T10:03:20.025Z,54.85
2023-02-11T10:06:23.424Z,57.25
2023-02-11T10:09:09.737Z,55.57
2023-02-11T10:11:52.967Z,51.10
2023-02-11T10:14:48.785Z,54.70
2023-02-11T10:17:32.268Z,57.60
2023-02-11T10:20:21.283Z,51.47
2023-02-11T10:22:54.773Z,51.00
2023-02-11T10:25:26.464Z,53.88
2023-02-11T10:28:00.640Z,53.60
2023-02-11T10:30:36.017Z,54.05
2023-02-11T10:33:15.994Z,57.15
2023-02-11T10:35:45.655Z,55.83
2023-02-11T10:38:14.169Z,54.53
2023-02-11T10:40:42.721Z,54.13
2023-02-11T10:43:17.439Z,53.65
2023-02-11T10:45:49.795Z,52.67
2023-02-11T10:48:40.652Z,52.70
2023-02-11T10:51:18.670Z,54.45
2023-02-11T10:53:51.285Z,51.50
2023-02-11T10:56:29.303Z,55.22
2023-02-11T10:59:02.728Z,49.03
2023-02-11T11:01:50.091Z,55.58
2023-02-11T11:04:39.057Z,57.73
2023-02-11T11:07:22.476Z,54.95
2023-02-11T11:09:54.980Z,53.67
2023-02-11T11:15:25.171Z,60.33
2023-02-11T11:18:21.370Z,52.33
2023-02-11T11:21:00.678Z,55.72
2023-02-11T11:23:31.568Z,56.42
2023-02-11T11:26:07.103Z,53.47
2023-02-11T11:28:41.704Z,50.92
2023-02-11T11:31:19.938Z,55.40
2023-02-11T11:33:49.703Z,54.55
2023-02-11T11:36:23.687Z,53.90
2023-02-11T11:38:57.929Z,59.43
2023-02-11T11:41:30.534Z,55.33
2023-02-11T11:44:02.767Z,65.03
2023-02-11T11:46:36.746Z,52.90
2023-02-11T11:49:29.321Z,55.88
2023-02-11T11:52:17.140Z,58.20
2023-02-11T11:54:56.524Z,58.58
2023-02-11T11:57:30.465Z,57.42
2023-02-11T12:00:00.180Z,62.67
2023-02-11T12:03:14.021Z,58.63
2023-02-11T12:05:54.208Z,57.47
2023-02-11T12:08:35.684Z,56.13
2023-02-11T12:11:19.307Z,54.38
2023-02-11T12:14:06.297Z,60.35
2023-02-11T12:16:49.000Z,55.28
2023-02-11T12:20:01.196Z,52.88
2023-02-11T12:22:42.866Z,54.83
2023-02-11T12:25:32.057Z,54.60
2023-02-11T12:28:20.045Z,51.17
2023-02-11T12:31:19.881Z,53.10
2023-02-11T12:34:15.163Z,49.30
2023-02-11T12:37:08.111Z,51.85
2023-02-11T12:39:46.069Z,51.45
2023-02-11T12:43:08.869Z,54.92
2023-02-11T12:45:55.487Z,50.60
2023-02-11T12:48:57.562Z,52.10
2023-02-11T12:51:51.079Z,53.28
2023-02-11T12:54:30.075Z,55.75
2023-02-11T12:57:07.271Z,52.50
2023-02-11T12:59:46.621Z,50.60
2023-02-11T13:02:29.069Z,51.40
2023-02-11T13:05:04.025Z,52.27
2023-02-11T13:07:40.136Z,52.95
2023-02-11T13:10:27.066Z,50.45
2023-02-11T13:13:17.793Z,50.58
2023-02-11T13:15:52.546Z,54.05
2023-02-11T13:18:48.254Z,51.72
2023-02-11T13:21:51.127Z,53.42
2023-02-11T13:24:31.352Z,50.25
2023-02-11T13:27:17.072Z,52.05
2023-02-11T13:30:25.954Z,52.35
2023-02-11T13:33:08.427Z,52.53
2023-02-11T13:35:39.874Z,57.08
2023-02-11T13:38:22.762Z,53.83
2023-02-11T13:41:06.007Z,51.85
2023-02-11T13:43:37.327Z,49.95
2023-02-11T13:46:07.781Z,52.42
2023-02-11T13:48:39.094Z,48.05
2023-02-11T13:51:12.061Z,53.00
2023-02-11T13:53:50.541Z,50.58
2023-02-11T13:56:32.251Z,52.13
2023-02-11T13:59:02.483Z,51.95
2023-02-11T14:02:23.284Z,49.97
2023-02-11T14:05:43.674Z,48.72
2023-02-11T14:08:40.067Z,49.03
2023-02-11T14:11:27.369Z,49.45
2023-02-11T14:14:18.429Z,46.05
2023-02-11T14:17:34.468Z,52.67
2023-02-11T14:20:25.344Z,44.83
2023-02-11T14:22:54.908Z,43.88
2023-02-11T14:25:26.488Z,43.42
2023-02-11T14:28:04.817Z,41.55
2023-02-11T14:31:04.747Z,44.33
2023-02-11T14:34:19.350Z,43.03
2023-02-11T14:37:19.078Z,43.55
2023-02-11T14:40:06.691Z,40.38
2023-02-11T14:42:38.675Z,40.50
2023-02-11T14:45:12.019Z,44.00
2023-02-11T14:47:52.467Z,43.78
2023-02-11T14:50:27.292Z,40.17
2023-02-11T14:52:57.067Z,41.40
2023-02-11T14:55:33.144Z,42.53
2023-02-11T14:58:14.724Z,43.28
2023-02-11T15:00:56.945Z,44.95
2023-02-11T15:03:35.068Z,46.10
2023-02-11T15:06:08.091Z,42.15
2023-02-11T15:08:43.038Z,45.42
2023-02-11T15:11:16.707Z,48.90
2023-02-11T15:13:47.544Z,49.13
2023-02-11T15:16:20.667Z,47.92
2023-02-11T15:18:54.982Z,46.13
2023-02-11T15:21:27.490Z,43.65
2023-02-11T15:24:02.425Z,44.55
2023-02-11T15:26:31.979Z,46.25
2023-02-11T15:29:00.940Z,42.95
2023-02-11T15:31:31.238Z,44.00
2023-02-11T15:34:09.108Z,44.80
2023-02-11T15:36:38.965Z,47.20
2023-02-11T15:39:31.507Z,44.90
2023-02-11T15:42:23.014Z,45.80
2023-02-11T15:45:09.499Z,45.05
2023-02-11T15:47:37.906Z,49.15
2023-02-11T15:50:20.515Z,46.43
2023-02-11T15:52:50.650Z,50.08
2023-02-11T15:55:20.917Z,53.40
2023-02-11T15:57:56.968Z,51.15
2023-02-11T16:00:33.102Z,51.80
2023-02-11T16:03:01.429Z,48.78
2023-02-11T16:05:34.552Z,52.30
2023-02-11T16:08:20.990Z,56.55
2023-02-11T16:10:58.869Z,51.73
2023-02-11T16:13:30.674Z,51.40
2023-02-11T16:16:04.589Z,53.30
2023-02-11T16:18:40.200Z,54.10
2023-02-11T16:21:18.226Z,52.53
2023-02-11T16:23:54.590Z,55.85
2023-02-11T16:26:30.308Z,59.03
2023-02-11T16:29:13.915Z,55.03
2023-02-11T16:31:45.153Z,56.10
2023-02-11T16:34:16.430Z,57.13
2023-02-11T16:36:47.065Z,55.22
2023-02-11T16:39:16.745Z,55.63
2023-02-11T16:41:44.891Z,55.63
2023-02-11T16:44:12.933Z,56.50
2023-02-11T16:46:41.265Z,53.85
2023-02-11T16:49:18.028Z,54.47
2023-02-11T16:51:51.581Z,56.33
2023-02-11T16:54:20.974Z,60.35
2023-02-11T16:56:49.060Z,58.40
2023-02-11T16:59:17.099Z,58.08
2023-02-11T17:01:46.747Z,75.72
2023-02-11T17:04:21.477Z,60.65
2023-02-11T17:06:50.970Z,61.08
2023-02-11T17:09:22.261Z,58.30
2023-02-11T17:11:50.978Z,54.53
2023-02-11T17:14:20.324Z,56.25
2023-02-11T17:16:49.649Z,54.10
2023-02-11T17:19:21.717Z,61.37
2023-02-11T17:21:53.872Z,58.85
2023-02-11T17:24:23.183Z,52.28
2023-02-11T17:26:52.028Z,54.40
2023-02-11T17:29:23.578Z,51.78
2023-02-11T17:31:52.814Z,50.97
2023-02-11T17:34:22.722Z,51.85
2023-02-11T17:36:52.779Z,52.03
2023-02-11T17:39:21.184Z,47.72
2023-02-11T17:41:49.348Z,50.72
2023-02-11T17:44:17.504Z,50.30
2023-02-11T17:46:45.689Z,42.42
2023-02-11T17:49:14.127Z,50.38
2023-02-11T17:51:42.280Z,49.33
2023-02-11T17:54:15.952Z,50.65
2023-02-11T17:56:44.693Z,47.55
2023-02-11T17:59:14.066Z,48.25
2023-02-11T18:01:44.388Z,45.95
2023-02-11T18:04:17.621Z,44.08
2023-02-11T18:06:46.627Z,44.78
2023-02-11T18:09:16.070Z,48.63
2023-02-11T18:11:44.186Z,44.15
2023-02-11T18:14:13.322Z,43.25
2023-02-11T18:16:43.596Z,43.03
2023-02-11T18:19:12.561Z,42.30
2023-02-11T18:21:40.698Z,44.72
2023-02-11T18:24:08.814Z,45.83
2023-02-11T18:26:38.725Z,44.53
2023-02-11T18:29:07.220Z,46.05
2023-02-11T18:31:36.333Z,48.75
2023-02-11T18:34:07.325Z,48.83
2023-02-11T18:36:36.213Z,46.95
2023-02-11T18:39:05.833Z,44.50
2023-02-11T18:41:34.423Z,49.15
2023-02-11T18:44:04.893Z,55.53
2023-02-11T18:46:33.029Z,48.92
2023-02-11T18:49:01.516Z,45.10
2023-02-11T18:51:32.236Z,48.08
2023-02-11T18:54:01.143Z,48.60
2023-02-11T18:56:29.391Z,46.65
2023-02-11T18:59:01.062Z,44.60
2023-02-11T19:01:33.671Z,43.80
2023-02-11T19:04:05.564Z,41.15
2023-02-11T19:06:36.861Z,42.90
2023-02-11T19:09:09.756Z,46.83
2023-02-11T19:11:50.126Z,43.20
2023-02-11T19:14:22.986Z,37.58
2023-02-11T19:16:55.783Z,40.45
2023-02-11T19:19:28.875Z,42.75
2023-02-11T19:21:58.271Z,36.40
2023-02-11T19:24:28.026Z,38.72
2023-02-11T19:27:00.022Z,35.85
2023-02-11T19:29:29.518Z,33.85
2023-02-11T19:31:59.067Z,36.85
2023-02-11T19:34:27.173Z,34.20
2023-02-11T19:36:56.698Z,33.58
2023-02-11T19:39:24.866Z,36.60
2023-02-11T19:41:53.198Z,33.33
2023-02-11T19:44:21.268Z,34.70
2023-02-11T19:46:50.208Z,30.48
2023-02-11T19:49:23.184Z,35.38
2023-02-11T19:51:52.374Z,33.17
2023-02-11T19:54:21.430Z,32.67
2023-02-11T19:56:50.195Z,42.97
2023-02-11T19:59:18.316Z,37.67
2023-02-11T20:01:47.714Z,40.38
2023-02-11T20:04:17.069Z,41.97
2023-02-11T20:06:48.195Z,45.42
2023-02-11T20:09:18.060Z,40.97
2023-02-11T20:11:46.160Z,46.95
2023-02-11T20:14:15.656Z,45.58
2023-02-11T20:16:49.156Z,47.92
2023-02-11T20:19:21.456Z,48.53
2023-02-11T20:21:55.501Z,53.85
2023-02-11T20:24:24.764Z,55.17
2023-02-11T20:26:55.376Z,51.75
2023-02-11T20:29:25.956Z,54.28
2023-02-11T20:31:54.422Z,57.05
2023-02-11T20:34:22.781Z,55.30
2023-02-11T20:36:52.730Z,58.55
2023-02-11T20:39:22.275Z,56.15
2023-02-11T20:41:52.370Z,65.25
2023-02-11T20:44:22.570Z,64.75
2023-02-11T20:46:52.061Z,61.00
2023-02-11T20:49:23.009Z,68.78
2023-02-11T20:51:53.540Z,64.13
2023-02-11T20:54:24.128Z,60.67
2023-02-11T20:56:55.280Z,58.45
2023-02-11T20:59:23.874Z,56.97
2023-02-11T21:01:55.287Z,60.97
2023-02-11T21:04:26.492Z,59.45
2023-02-11T21:06:59.756Z,61.28
2023-02-11T21:09:31.380Z,58.17
2023-02-11T21:12:00.156Z,58.65
2023-02-11T21:14:28.580Z,62.95
2023-02-11T21:16:57.469Z,61.08
2023-02-11T21:19:25.933Z,57.10
2023-02-11T21:21:57.230Z,50.45
2023-02-11T21:24:25.374Z,54.53
2023-02-11T21:26:53.481Z,62.85
2023-02-11T21:29:21.543Z,58.05
2023-02-11T21:31:51.404Z,55.05
2023-02-11T21:34:20.628Z,52.50
2023-02-11T21:36:50.993Z,43.75
2023-02-11T21:39:21.001Z,49.00
2023-02-11T21:41:49.189Z,53.92
2023-02-11T21:44:17.279Z,52.30
2023-02-11T21:46:45.441Z,56.40
2023-02-11T21:49:13.530Z,48.78
2023-02-11T21:51:41.608Z,43.55
2023-02-11T21:54:11.708Z,46.85
2023-02-11T21:56:41.127Z,44.03
2023-02-11T21:59:12.484Z,42.30
2023-02-11T22:01:40.820Z,41.05
2023-02-11T22:04:08.905Z,38.17
2023-02-11T22:06:36.937Z,41.80
2023-02-11T22:09:07.660Z,38.97
2023-02-11T22:11:36.477Z,39.72
2023-02-11T22:14:06.259Z,39.65
2023-02-11T22:16:34.502Z,37.25
2023-02-11T22:19:03.359Z,44.15
2023-02-11T22:21:31.897Z,44.35
2023-02-11T22:23:59.966Z,40.00
2023-02-11T22:26:29.437Z,42.95
2023-02-11T22:28:58.329Z,40.15
2023-02-11T22:31:31.264Z,42.17
2023-02-11T22:34:00.971Z,39.65
2023-02-11T22:36:31.948Z,44.10
2023-02-11T22:39:02.796Z,48.35
2023-02-11T22:41:31.328Z,45.58
2023-02-11T22:43:59.539Z,47.15
2023-02-11T22:46:28.990Z,53.75
2023-02-11T22:48:57.446Z,48.60
2023-02-11T22:51:29.504Z,53.75
2023-02-11T22:54:00.340Z,46.50
2023-02-11T22:56:30.420Z,40.40
2023-02-11T22:59:00.498Z,47.00
2023-02-11T23:01:31.407Z,45.33
2023-02-11T23:04:02.311Z,43.33
2023-02-11T23:06:30.573Z,43.75
2023-02-11T23:08:58.784Z,43.90
2023-02-11T23:11:31.761Z,44.78
2023-02-11T23:14:00.154Z,45.88
2023-02-11T23:16:33.210Z,42.87
2023-02-11T23:19:03.215Z,38.97
2023-02-11T23:21:35.390Z,40.25
2023-02-11T23:24:08.560Z,43.28
2023-02-11T23:26:39.637Z,39.03
2023-02-11T23:29:08.661Z,44.80
2023-02-11T23:31:41.343Z,43.90
2023-02-11T23:34:10.368Z,41.35
2023-02-11T23:36:38.923Z,45.03
2023-02-11T23:39:07.172Z,44.38
2023-02-11T23:41:35.414Z,44.90
2023-02-11T23:44:03.604Z,45.10
2023-02-11T23:46:31.698Z,41.00
2023-02-11T23:49:01.460Z,40.92
2023-02-11T23:51:29.707Z,45.22
2023-02-11T23:53:57.952Z,51.90
2023-02-11T23:56:28.496Z,48.22
2023-02-11T23:58:59.414Z,49.00
